Time;durP1;ratioP1;P1;durP2;ratioP2;P2;SDS_P1;SDS_P2;PMS_P1;PMS_P2;Temp;Humidity;BMP_temperature;BMP_pressure;BME280_temperature;BME280_humidity;BME280_pressure;Samples;Min_cycle;Max_cycle;Signal;HPM_P1;HPM_P2
2023/06/13 00:00:10;;;;;;;3.78;2.40;;;;;;;;;;5095939;28;20109;-63
2023/06/13 00:02:39;;;;;;;7.00;2.67;;;;;;;;;;5096405;28;20034;-64
2023/06/13 00:05:17;;;;;;;4.20;2.22;;;;;;;;;;5116278;28;20023;-64
2023/06/13 00:07:44;;;;;;;4.10;2.17;;;;;;;;;;5116316;28;20481;-64
2023/06/13 00:10:10;;;;;;;10.48;2.50;;;;;;;;;;5116234;28;20023;-64
2023/06/13 00:12:36;;;;;;;12.60;2.80;;;;;;;;;;5115860;28;20026;-64
2023/06/13 00:15:03;;;;;;;7.90;2.30;;;;;;;;;;5116018;28;20384;-64
2023/06/13 00:17:29;;;;;;;5.90;2.40;;;;;;;;;;5116029;28;20107;-64
2023/06/13 00:19:56;;;;;;;7.38;2.40;;;;;;;;;;5113810;28;20366;-64
2023/06/13 00:22:23;;;;;;;4.22;2.65;;;;;;;;;;5115831;27;20031;-64
2023/06/13 00:24:49;;;;;;;7.15;2.40;;;;;;;;;;5116063;28;20039;-64
2023/06/13 00:27:14;;;;;;;7.93;2.42;;;;;;;;;;5115696;27;20396;-65
2023/06/13 00:29:40;;;;;;;5.75;2.17;;;;;;;;;;5115925;28;20019;-65
2023/06/13 00:32:06;;;;;;;4.40;2.42;;;;;;;;;;5115891;28;20371;-64
2023/06/13 00:34:31;;;;;;;7.70;2.33;;;;;;;;;;5115648;28;20088;-64
2023/06/13 00:36:59;;;;;;;6.75;2.28;;;;;;;;;;5111818;28;20423;-64
2023/06/13 00:39:25;;;;;;;7.53;2.45;;;;;;;;;;5105840;28;20495;-64
2023/06/13 00:41:50;;;;;;;4.32;2.47;;;;;;;;;;5115352;28;20024;-64
2023/06/13 00:44:16;;;;;;;6.82;2.25;;;;;;;;;;5115583;28;20427;-64
2023/06/13 00:46:43;;;;;;;4.70;2.45;;;;;;;;;;5108752;28;20119;-64
2023/06/13 00:49:09;;;;;;;7.97;2.28;;;;;;;;;;5094836;28;20032;-64
2023/06/13 00:51:40;;;;;;;4.25;2.30;;;;;;;;;;5095146;28;20119;-64
2023/06/13 00:54:10;;;;;;;6.45;2.08;;;;;;;;;;5095007;28;20035;-64
2023/06/13 00:56:36;;;;;;;5.03;2.53;;;;;;;;;;5094761;28;20031;-66
2023/06/13 00:59:03;;;;;;;4.75;2.35;;;;;;;;;;5094799;28;20028;-64
2023/06/13 01:01:30;;;;;;;4.55;2.28;;;;;;;;;;5094903;28;20462;-64
2023/06/13 01:04:02;;;;;;;6.05;2.38;;;;;;;;;;5106386;28;20456;-64
2023/06/13 01:06:30;;;;;;;4.43;2.40;;;;;;;;;;5114921;28;20023;-63
2023/06/13 01:08:58;;;;;;;6.00;2.38;;;;;;;;;;5115082;28;20106;-65
2023/06/13 01:11:48;;;;;;;6.22;2.13;;;;;;;;;;5114934;28;20365;-64
2023/06/13 01:14:24;;;;;;;3.15;2.03;;;;;;;;;;5115058;27;20092;-64
2023/06/13 01:17:01;;;;;;;16.48;2.30;;;;;;;;;;5114880;28;20028;-63
2023/06/13 01:19:43;;;;;;;3.55;2.40;;;;;;;;;;5113619;28;20153;-64
2023/06/13 01:22:14;;;;;;;3.78;2.20;;;;;;;;;;5114745;28;20015;-63
2023/06/13 01:24:46;;;;;;;6.63;2.45;;;;;;;;;;5114430;28;20514;-63
2023/06/13 01:27:13;;;;;;;4.85;2.10;;;;;;;;;;5114499;28;20118;-63
2023/06/13 01:29:41;;;;;;;4.18;2.47;;;;;;;;;;5114627;28;20027;-63
2023/06/13 01:32:08;;;;;;;2.85;2.03;;;;;;;;;;5114545;28;20038;-64
2023/06/13 01:34:34;;;;;;;5.38;1.95;;;;;;;;;;5114378;28;20148;-63
2023/06/13 01:37:00;;;;;;;6.88;2.15;;;;;;;;;;5110274;28;20040;-64
2023/06/13 01:39:26;;;;;;;4.30;2.35;;;;;;;;;;5104895;28;20112;-64
2023/06/13 01:41:51;;;;;;;4.00;2.45;;;;;;;;;;5114567;28;20030;-64
2023/06/13 01:44:18;;;;;;;5.97;2.30;;;;;;;;;;5114412;28;20064;-64
2023/06/13 01:47:07;;;;;;;7.55;2.30;;;;;;;;;;5107064;28;20475;-64
2023/06/13 01:49:42;;;;;;;3.75;2.20;;;;;;;;;;5093819;28;20039;-64
2023/06/13 01:52:28;;;;;;;2.80;1.95;;;;;;;;;;5094038;28;20028;-64
2023/06/13 01:55:03;;;;;;;9.57;2.20;;;;;;;;;;5086386;28;20385;-64
2023/06/13 01:57:36;;;;;;;7.45;2.40;;;;;;;;;;5093832;28;20024;-63
2023/06/13 02:00:04;;;;;;;4.70;2.15;;;;;;;;;;5093738;28;20020;-64
2023/06/13 02:02:31;;;;;;;4.55;2.38;;;;;;;;;;5093576;28;20042;-64
2023/06/13 02:04:56;;;;;;;4.93;2.13;;;;;;;;;;5113947;28;20015;-64
2023/06/13 02:07:22;;;;;;;6.45;2.40;;;;;;;;;;5113819;28;20032;-64
2023/06/13 02:09:48;;;;;;;6.18;2.42;;;;;;;;;;5114002;28;20461;-64
2023/06/13 02:12:14;;;;;;;7.07;2.40;;;;;;;;;;5113960;28;20072;-64
2023/06/13 02:14:40;;;;;;;4.85;2.15;;;;;;;;;;5113971;28;20047;-66
2023/06/13 02:17:06;;;;;;;3.33;2.20;;;;;;;;;;5113988;28;20027;-66
2023/06/13 02:19:32;;;;;;;5.65;2.58;;;;;;;;;;5113835;28;20034;-63
2023/06/13 02:21:57;;;;;;;3.63;2.22;;;;;;;;;;5113438;28;20023;-64
2023/06/13 02:24:22;;;;;;;5.07;2.58;;;;;;;;;;5113675;28;20069;-64
2023/06/13 02:26:48;;;;;;;6.18;2.38;;;;;;;;;;5113687;28;20031;-63
2023/06/13 02:29:14;;;;;;;4.32;2.20;;;;;;;;;;5113771;28;20028;-63
2023/06/13 02:31:41;;;;;;;7.60;2.67;;;;;;;;;;5113539;28;20148;-63
2023/06/13 02:34:06;;;;;;;8.20;2.72;;;;;;;;;;5113458;28;20425;-64
2023/06/13 02:36:32;;;;;;;4.13;2.35;;;;;;;;;;5113077;28;20066;-64
2023/06/13 02:39:00;;;;;;;5.05;2.50;;;;;;;;;;5099944;28;20145;-63
2023/06/13 02:41:26;;;;;;;7.47;2.35;;;;;;;;;;5112874;28;20598;-64
2023/06/13 02:43:51;;;;;;;6.65;2.70;;;;;;;;;;5113471;28;20046;-64
2023/06/13 02:46:17;;;;;;;6.82;2.83;;;;;;;;;;5109926;28;20481;-64
2023/06/13 02:48:43;;;;;;;5.75;2.80;;;;;;;;;;5092719;28;20044;-64
2023/06/13 02:51:09;;;;;;;7.60;2.60;;;;;;;;;;5092672;28;20565;-64
2023/06/13 02:53:34;;;;;;;4.45;2.45;;;;;;;;;;5092873;28;20111;-64
2023/06/13 02:56:00;;;;;;;8.27;2.97;;;;;;;;;;5092871;28;21103;-64
2023/06/13 02:58:25;;;;;;;11.23;5.68;;;;;;;;;;5092774;28;20469;-64
2023/06/13 03:00:51;;;;;;;8.55;2.80;;;;;;;;;;5092856;28;20028;-64
2023/06/13 03:03:18;;;;;;;6.95;2.50;;;;;;;;;;5097726;28;20016;-64
2023/06/13 03:05:47;;;;;;;5.07;2.58;;;;;;;;;;5112949;28;20027;-64
2023/06/13 03:08:18;;;;;;;7.97;2.70;;;;;;;;;;5113118;28;20093;-64
2023/06/13 03:10:44;;;;;;;6.03;2.53;;;;;;;;;;5113075;28;20027;-64
2023/06/13 03:13:09;;;;;;;4.80;2.65;;;;;;;;;;5113024;28;20477;-64
2023/06/13 03:15:35;;;;;;;9.55;2.67;;;;;;;;;;5113116;28;20115;-64
2023/06/13 03:18:00;;;;;;;5.25;2.83;;;;;;;;;;5112920;28;20369;-64
2023/06/13 03:20:26;;;;;;;8.43;3.17;;;;;;;;;;5112684;28;20084;-64
2023/06/13 03:22:51;;;;;;;5.78;3.10;;;;;;;;;;5112962;28;20047;-64
2023/06/13 03:25:18;;;;;;;8.45;3.03;;;;;;;;;;5113016;28;20017;-65
2023/06/13 03:27:43;;;;;;;9.02;3.10;;;;;;;;;;5112798;28;20027;-63
2023/06/13 03:30:09;;;;;;;7.35;3.20;;;;;;;;;;5084285;28;20020;-64
2023/06/13 03:32:36;;;;;;;4.88;3.08;;;;;;;;;;5092443;28;20028;-65
2023/06/13 03:35:02;;;;;;;8.05;3.55;;;;;;;;;;5083827;28;20031;-64
2023/06/13 03:37:28;;;;;;;6.28;2.90;;;;;;;;;;5084519;28;20043;-65
2023/06/13 03:39:53;;;;;;;5.78;3.45;;;;;;;;;;5106998;28;20020;-65
2023/06/13 03:42:19;;;;;;;7.10;3.42;;;;;;;;;;5101839;28;20030;-65
2023/06/13 03:44:48;;;;;;;9.13;3.38;;;;;;;;;;5106283;28;20034;-65
2023/06/13 03:47:14;;;;;;;9.20;3.95;;;;;;;;;;5093747;28;20101;-65
2023/06/13 03:49:39;;;;;;;8.35;3.60;;;;;;;;;;5096781;28;20027;-65
2023/06/13 03:52:05;;;;;;;8.80;3.33;;;;;;;;;;5103841;28;20035;-63
2023/06/13 03:54:30;;;;;;;6.78;3.30;;;;;;;;;;5095048;28;20028;-64
2023/06/13 03:56:56;;;;;;;6.85;3.30;;;;;;;;;;5110225;28;20019;-64
2023/06/13 03:59:21;;;;;;;7.75;3.88;;;;;;;;;;5099083;28;20107;-66
2023/06/13 04:01:47;;;;;;;7.57;3.92;;;;;;;;;;5104001;28;20024;-63
2023/06/13 04:04:12;;;;;;;16.52;5.57;;;;;;;;;;5108106;28;20351;-64
2023/06/13 04:06:38;;;;;;;9.52;3.65;;;;;;;;;;5115822;28;20092;-64
2023/06/13 04:09:05;;;;;;;15.77;4.10;;;;;;;;;;5116337;28;20502;-64
2023/06/13 04:11:34;;;;;;;28.42;6.93;;;;;;;;;;5115868;28;20110;-64
2023/06/13 04:14:01;;;;;;;10.48;3.90;;;;;;;;;;5115528;28;20062;-64
2023/06/13 04:16:26;;;;;;;11.68;4.53;;;;;;;;;;5116027;28;20030;-65
2023/06/13 04:18:54;;;;;;;10.55;4.05;;;;;;;;;;5115901;28;20020;-65
2023/06/13 04:21:21;;;;;;;12.57;4.07;;;;;;;;;;5115643;28;20073;-65
2023/06/13 04:23:48;;;;;;;10.10;3.50;;;;;;;;;;5113608;28;20024;-64
2023/06/13 04:26:17;;;;;;;12.57;4.53;;;;;;;;;;5113571;28;20030;-64
2023/06/13 04:28:43;;;;;;;8.57;3.72;;;;;;;;;;5113660;28;20023;-64
2023/06/13 04:31:10;;;;;;;9.93;4.38;;;;;;;;;;5113867;28;20031;-64
2023/06/13 04:33:39;;;;;;;8.10;4.00;;;;;;;;;;5113452;27;20472;-64
2023/06/13 04:36:05;;;;;;;8.73;4.05;;;;;;;;;;5113731;28;20465;-64
2023/06/13 04:38:34;;;;;;;9.00;3.90;;;;;;;;;;5101726;27;20028;-65
2023/06/13 04:41:00;;;;;;;12.60;4.47;;;;;;;;;;5115529;28;20030;-65
2023/06/13 04:43:28;;;;;;;12.90;4.90;;;;;;;;;;5115544;28;20121;-65
2023/06/13 04:45:55;;;;;;;10.00;3.85;;;;;;;;;;5115549;28;20015;-65
2023/06/13 04:48:25;;;;;;;9.75;3.85;;;;;;;;;;5074272;28;20109;-64
2023/06/13 04:50:53;;;;;;;8.35;4.13;;;;;;;;;;5074890;28;20036;-64
2023/06/13 04:53:21;;;;;;;13.90;5.10;;;;;;;;;;5074747;28;20394;-64
2023/06/13 04:55:48;;;;;;;7.25;4.20;;;;;;;;;;5075085;28;20024;-64
2023/06/13 04:58:14;;;;;;;7.65;3.83;;;;;;;;;;5075070;28;20024;-64
2023/06/13 05:00:39;;;;;;;12.73;3.53;;;;;;;;;;5074837;28;20026;-64
2023/06/13 05:03:06;;;;;;;7.10;3.60;;;;;;;;;;5083440;28;20027;-65
2023/06/13 05:05:32;;;;;;;12.52;4.03;;;;;;;;;;5114592;28;20351;-65
2023/06/13 05:07:59;;;;;;;11.88;4.78;;;;;;;;;;5115188;28;20027;-64
2023/06/13 05:10:25;;;;;;;10.15;4.00;;;;;;;;;;5114945;28;20133;-64
2023/06/13 05:12:52;;;;;;;10.52;4.65;;;;;;;;;;5114882;28;20027;-65
2023/06/13 05:15:18;;;;;;;10.35;4.10;;;;;;;;;;5115025;28;20032;-65
2023/06/13 05:17:45;;;;;;;7.72;3.95;;;;;;;;;;5114603;28;20115;-65
2023/06/13 05:20:12;;;;;;;12.23;4.22;;;;;;;;;;5114848;28;20019;-64
2023/06/13 05:22:41;;;;;;;10.23;3.92;;;;;;;;;;5114806;28;20032;-64
2023/06/13 05:25:11;;;;;;;8.80;4.03;;;;;;;;;;5113757;28;20100;-64
2023/06/13 05:27:37;;;;;;;11.57;4.15;;;;;;;;;;5114986;28;20035;-64
2023/06/13 05:30:06;;;;;;;11.60;4.50;;;;;;;;;;5114834;28;20536;-64
2023/06/13 05:32:32;;;;;;;11.55;4.00;;;;;;;;;;5114310;28;20524;-64
2023/06/13 05:34:57;;;;;;;11.65;4.50;;;;;;;;;;5114791;28;20055;-64
2023/06/13 05:37:23;;;;;;;8.77;3.63;;;;;;;;;;5107367;28;20081;-64
2023/06/13 05:39:48;;;;;;;8.77;4.03;;;;;;;;;;5108303;28;20035;-64
2023/06/13 05:42:14;;;;;;;9.75;4.00;;;;;;;;;;5114576;28;20032;-64
2023/06/13 05:44:39;;;;;;;15.40;4.30;;;;;;;;;;5114660;28;20031;-65
2023/06/13 05:47:05;;;;;;;10.32;4.00;;;;;;;;;;5104012;28;20465;-65
2023/06/13 05:49:30;;;;;;;9.05;4.03;;;;;;;;;;5094041;28;20024;-65
2023/06/13 05:51:57;;;;;;;11.13;4.40;;;;;;;;;;5094205;28;20099;-64
2023/06/13 05:54:22;;;;;;;13.68;4.18;;;;;;;;;;5093936;28;20128;-64
2023/06/13 05:56:47;;;;;;;11.40;4.13;;;;;;;;;;5093985;28;20458;-64
2023/06/13 05:59:14;;;;;;;12.68;4.13;;;;;;;;;;5093708;28;20053;-64
2023/06/13 06:01:44;;;;;;;10.40;4.43;;;;;;;;;;5093700;28;20035;-64
2023/06/13 06:04:10;;;;;;;11.50;4.88;;;;;;;;;;5107349;28;20031;-64
2023/06/13 06:06:35;;;;;;;11.13;4.03;;;;;;;;;;5113798;28;20039;-64
2023/06/13 06:09:01;;;;;;;12.27;4.13;;;;;;;;;;5114169;28;20389;-64
2023/06/13 06:11:27;;;;;;;13.05;4.18;;;;;;;;;;5114085;28;20031;-64
2023/06/13 06:13:52;;;;;;;8.68;3.85;;;;;;;;;;5113969;28;20570;-64
2023/06/13 06:16:18;;;;;;;10.82;4.50;;;;;;;;;;5113178;28;20077;-64
2023/06/13 06:18:43;;;;;;;10.57;4.43;;;;;;;;;;5113822;28;20023;-64
2023/06/13 06:21:09;;;;;;;12.43;3.75;;;;;;;;;;5113798;28;20019;-64
2023/06/13 06:23:36;;;;;;;11.80;3.72;;;;;;;;;;5113527;28;20362;-64
2023/06/13 06:26:01;;;;;;;8.13;4.15;;;;;;;;;;5113501;28;20061;-64
2023/06/13 06:28:27;;;;;;;13.30;3.70;;;;;;;;;;5113564;28;20538;-64
2023/06/13 06:30:52;;;;;;;13.40;3.95;;;;;;;;;;5113661;28;20104;-65
2023/06/13 06:33:18;;;;;;;10.35;4.18;;;;;;;;;;5113379;28;20031;-64
2023/06/13 06:35:43;;;;;;;7.20;3.70;;;;;;;;;;5113214;28;20040;-65
2023/06/13 06:38:09;;;;;;;10.25;4.35;;;;;;;;;;5099542;28;20377;-65
2023/06/13 06:40:34;;;;;;;9.20;3.70;;;;;;;;;;5113357;28;20177;-65
2023/06/13 06:42:59;;;;;;;8.05;3.60;;;;;;;;;;5113050;28;20051;-65
2023/06/13 06:45:25;;;;;;;11.43;3.90;;;;;;;;;;5113251;28;20129;-65
2023/06/13 06:47:50;;;;;;;16.20;4.00;;;;;;;;;;5096623;28;20123;-65
2023/06/13 06:50:16;;;;;;;7.72;3.72;;;;;;;;;;5092725;28;20435;-65
2023/06/13 06:52:43;;;;;;;17.52;3.83;;;;;;;;;;5092808;28;20040;-65
2023/06/13 06:55:09;;;;;;;12.60;3.70;;;;;;;;;;5092800;28;20052;-65
2023/06/13 06:57:34;;;;;;;10.27;3.63;;;;;;;;;;5092547;28;20084;-65
2023/06/13 07:00:00;;;;;;;9.05;3.88;;;;;;;;;;5092758;28;20477;-65
2023/06/13 07:02:26;;;;;;;5.80;3.38;;;;;;;;;;5092515;28;20028;-65
2023/06/13 07:04:51;;;;;;;11.57;3.90;;;;;;;;;;5112288;28;20435;-65
2023/06/13 07:07:17;;;;;;;8.70;3.40;;;;;;;;;;5113035;28;20533;-65
2023/06/13 07:09:42;;;;;;;10.82;3.28;;;;;;;;;;5113024;28;20030;-65
2023/06/13 07:12:08;;;;;;;11.93;3.33;;;;;;;;;;5112618;28;20043;-65
2023/06/13 07:14:33;;;;;;;6.38;2.75;;;;;;;;;;5113033;28;20040;-65
2023/06/13 07:16:59;;;;;;;9.63;3.10;;;;;;;;;;5112845;28;20074;-65
2023/06/13 07:19:24;;;;;;;7.13;3.20;;;;;;;;;;5112955;28;20488;-65
2023/06/13 07:21:50;;;;;;;8.75;2.60;;;;;;;;;;5112815;28;20035;-65
2023/06/13 07:24:15;;;;;;;7.20;3.08;;;;;;;;;;5112949;28;20019;-65
2023/06/13 07:26:41;;;;;;;9.95;3.00;;;;;;;;;;5112299;28;20031;-65
2023/06/13 07:29:06;;;;;;;10.40;2.72;;;;;;;;;;5115854;28;20303;-65
2023/06/13 07:31:32;;;;;;;9.02;3.30;;;;;;;;;;5116933;28;20038;-65
2023/06/13 07:33:57;;;;;;;11.30;3.10;;;;;;;;;;5116520;28;20059;-65
2023/06/13 07:36:22;;;;;;;10.25;3.40;;;;;;;;;;5116624;28;20019;-65
2023/06/13 07:38:50;;;;;;;7.30;2.70;;;;;;;;;;5102786;28;20019;-65
2023/06/13 07:41:15;;;;;;;7.78;2.92;;;;;;;;;;5116444;28;20034;-65
2023/06/13 07:43:41;;;;;;;5.80;2.78;;;;;;;;;;5116592;28;20380;-65
2023/06/13 07:46:06;;;;;;;11.15;2.92;;;;;;;;;;5113343;28;20442;-65
2023/06/13 07:48:32;;;;;;;13.35;2.90;;;;;;;;;;5095576;28;20052;-64
2023/06/13 07:50:57;;;;;;;5.93;3.13;;;;;;;;;;5095998;28;20103;-64
2023/06/13 07:53:23;;;;;;;9.40;2.60;;;;;;;;;;5096145;28;20020;-64
2023/06/13 07:55:49;;;;;;;4.38;2.40;;;;;;;;;;5095784;28;20028;-65
2023/06/13 07:58:15;;;;;;;5.28;2.40;;;;;;;;;;5095909;28;20035;-65
2023/06/13 08:00:40;;;;;;;10.43;2.78;;;;;;;;;;5095837;28;20034;-65
2023/06/13 08:03:06;;;;;;;8.52;2.60;;;;;;;;;;5100608;28;20022;-64
2023/06/13 08:05:31;;;;;;;7.75;2.70;;;;;;;;;;5116331;27;20027;-65
2023/06/13 08:07:57;;;;;;;7.75;2.40;;;;;;;;;;5116306;28;20077;-65
2023/06/13 08:10:23;;;;;;;15.07;2.92;;;;;;;;;;5114647;28;20043;-65
2023/06/13 08:12:48;;;;;;;6.03;2.60;;;;;;;;;;5116047;28;20090;-65
2023/06/13 08:15:14;;;;;;;4.85;2.40;;;;;;;;;;5116125;28;20201;-65
2023/06/13 08:17:43;;;;;;;7.75;2.45;;;;;;;;;;5115963;28;20114;-65
2023/06/13 08:20:09;;;;;;;7.03;2.50;;;;;;;;;;5116210;28;20465;-65
2023/06/13 08:22:38;;;;;;;14.30;3.05;;;;;;;;;;5115870;27;20035;-64
2023/06/13 08:25:04;;;;;;;5.18;2.60;;;;;;;;;;5115640;28;20028;-65
2023/06/13 08:27:29;;;;;;;6.82;2.53;;;;;;;;;;5115675;28;20509;-65
2023/06/13 08:29:56;;;;;;;7.20;2.72;;;;;;;;;;5115725;28;20115;-65
2023/06/13 08:32:21;;;;;;;4.88;2.10;;;;;;;;;;5115622;28;20027;-65
2023/06/13 08:34:47;;;;;;;11.27;2.30;;;;;;;;;;5115693;28;20027;-64
2023/06/13 08:37:13;;;;;;;7.70;2.10;;;;;;;;;;5109803;28;20156;-64
2023/06/13 08:39:38;;;;;;;6.07;2.40;;;;;;;;;;5106977;28;20023;-65
2023/06/13 08:42:06;;;;;;;8.15;2.40;;;;;;;;;;5115678;28;20504;-65
2023/06/13 08:44:32;;;;;;;5.45;2.55;;;;;;;;;;5115577;28;20499;-65
2023/06/13 08:46:57;;;;;;;6.50;2.47;;;;;;;;;;5106203;27;20060;-65
2023/06/13 08:49:23;;;;;;;4.35;2.17;;;;;;;;;;5094877;28;20024;-64
2023/06/13 08:51:51;;;;;;;4.25;2.45;;;;;;;;;;5094912;28;20024;-65
2023/06/13 08:54:18;;;;;;;5.15;2.15;;;;;;;;;;5094593;28;20024;-64
2023/06/13 08:56:45;;;;;;;4.78;2.40;;;;;;;;;;5095021;28;20032;-64
2023/06/13 08:59:36;;;;;;;5.05;2.42;;;;;;;;;;5094921;28;20046;-65
2023/06/13 09:02:04;;;;;;;10.52;2.45;;;;;;;;;;5092581;28;20496;-65
2023/06/13 09:04:34;;;;;;;8.00;2.40;;;;;;;;;;5111167;28;20062;-65
2023/06/13 09:07:01;;;;;;;5.53;2.20;;;;;;;;;;5115010;28;20123;-65
2023/06/13 09:09:27;;;;;;;4.60;2.10;;;;;;;;;;5114844;28;20028;-65
2023/06/13 09:11:53;;;;;;;4.57;2.13;;;;;;;;;;5114976;28;20035;-65
2023/06/13 09:14:19;;;;;;;5.65;2.25;;;;;;;;;;5114944;28;20019;-64
2023/06/13 09:16:45;;;;;;;4.82;2.22;;;;;;;;;;5114866;28;20032;-65
2023/06/13 09:19:12;;;;;;;9.32;2.20;;;;;;;;;;5114910;28;20030;-65
2023/06/13 09:21:38;;;;;;;8.07;2.03;;;;;;;;;;5114746;28;20028;-63
2023/06/13 09:24:06;;;;;;;4.82;2.50;;;;;;;;;;5114474;28;20421;-65
2023/06/13 09:26:31;;;;;;;3.85;2.25;;;;;;;;;;5114549;28;20031;-65
2023/06/13 09:28:58;;;;;;;10.45;2.70;;;;;;;;;;5114705;28;20024;-64
2023/06/13 09:31:23;;;;;;;7.57;2.40;;;;;;;;;;5114397;28;20023;-63
2023/06/13 09:33:49;;;;;;;4.82;2.30;;;;;;;;;;5114475;28;20484;-63
2023/06/13 09:36:14;;;;;;;4.38;1.90;;;;;;;;;;5114482;28;20487;-63
2023/06/13 09:38:41;;;;;;;7.80;2.38;;;;;;;;;;5100254;28;20036;-63
2023/06/13 09:41:10;;;;;;;7.22;2.25;;;;;;;;;;5114343;28;20073;-63
2023/06/13 09:43:37;;;;;;;4.07;2.08;;;;;;;;;;5114295;28;20038;-63
2023/06/13 09:46:03;;;;;;;13.68;2.17;;;;;;;;;;5113003;28;20096;-63
2023/06/13 09:48:29;;;;;;;7.05;2.30;;;;;;;;;;5093550;28;20040;-63
2023/06/13 09:50:54;;;;;;;6.03;2.33;;;;;;;;;;5093350;28;20028;-63
2023/06/13 09:53:20;;;;;;;6.68;2.00;;;;;;;;;;5093008;28;20044;-64
2023/06/13 09:55:48;;;;;;;4.80;1.38;;;;;;;;;;5093883;28;20130;-66
2023/06/13 09:58:13;;;;;;;5.72;2.00;;;;;;;;;;5093730;28;20369;-63
2023/06/13 10:00:39;;;;;;;3.63;2.05;;;;;;;;;;5093531;28;20044;-63
2023/06/13 10:03:05;;;;;;;5.40;2.00;;;;;;;;;;5097861;28;20529;-65
2023/06/13 10:05:30;;;;;;;8.80;2.33;;;;;;;;;;5113962;28;20031;-65
2023/06/13 10:07:56;;;;;;;4.05;2.08;;;;;;;;;;5113661;28;20063;-65
2023/06/13 10:10:22;;;;;;;6.35;2.40;;;;;;;;;;5113821;28;20035;-65
2023/06/13 10:12:55;;;;;;;7.18;2.47;;;;;;;;;;5113824;28;20031;-63
2023/06/13 10:15:55;;;;;;;5.28;1.80;;;;;;;;;;5113964;28;20028;-65
2023/06/13 10:18:24;;;;;;;4.20;1.90;;;;;;;;;;5110189;28;20442;-63
2023/06/13 10:20:52;;;;;;;6.32;2.03;;;;;;;;;;5113573;28;20016;-63
2023/06/13 10:23:21;;;;;;;3.65;1.67;;;;;;;;;;5113554;28;20114;-63
2023/06/13 10:25:54;;;;;;;5.13;2.07;;;;;;;;;;5113351;28;20027;-63
2023/06/13 10:28:39;;;;;;;4.38;2.03;;;;;;;;;;5113562;28;20030;-63
2023/06/13 10:31:35;;;;;;;4.15;2.10;;;;;;;;;;5113444;28;20016;-63
2023/06/13 10:34:25;;;;;;;7.10;2.17;;;;;;;;;;5113313;28;20081;-63
2023/06/13 10:37:30;;;;;;;7.18;2.05;;;;;;;;;;5110358;28;20056;-64
2023/06/13 10:40:15;;;;;;;5.68;2.00;;;;;;;;;;5107931;28;20027;-64
2023/06/13 10:42:47;;;;;;;4.80;1.83;;;;;;;;;;5113105;28;20028;-64
2023/06/13 10:45:21;;;;;;;3.75;1.88;;;;;;;;;;5113225;28;20042;-64
2023/06/13 10:47:47;;;;;;;6.55;1.90;;;;;;;;;;5097015;28;20048;-64
2023/06/13 10:50:16;;;;;;;3.58;1.85;;;;;;;;;;5090977;28;20043;-64
2023/06/13 10:52:48;;;;;;;7.00;2.00;;;;;;;;;;5092795;28;20024;-64
2023/06/13 10:55:26;;;;;;;3.78;1.83;;;;;;;;;;5092799;28;20081;-64
2023/06/13 10:57:53;;;;;;;5.70;2.10;;;;;;;;;;5092768;28;20071;-64
2023/06/13 11:00:30;;;;;;;6.28;1.85;;;;;;;;;;5092897;28;20032;-64
2023/06/13 11:02:59;;;;;;;7.63;2.05;;;;;;;;;;5097069;28;20096;-64
2023/06/13 11:05:26;;;;;;;3.95;2.20;;;;;;;;;;5117146;28;20020;-64
2023/06/13 11:07:54;;;;;;;5.82;2.00;;;;;;;;;;5117393;28;20039;-64
2023/06/13 11:10:21;;;;;;;3.92;1.90;;;;;;;;;;5117226;28;20030;-64
2023/06/13 11:12:46;;;;;;;6.97;1.90;;;;;;;;;;5117275;28;20028;-64
2023/06/13 11:15:21;;;;;;;7.22;2.28;;;;;;;;;;5117305;28;20038;-64
2023/06/13 11:18:13;;;;;;;3.45;1.73;;;;;;;;;;5117102;28;20058;-63
2023/06/13 11:20:49;;;;;;;5.05;1.75;;;;;;;;;;5117025;28;20023;-63
2023/06/13 11:23:17;;;;;;;5.10;1.92;;;;;;;;;;5116604;28;20031;-64
2023/06/13 11:25:43;;;;;;;3.40;1.60;;;;;;;;;;5116829;28;20026;-64
2023/06/13 11:28:08;;;;;;;4.65;1.60;;;;;;;;;;5116973;28;20019;-63
2023/06/13 11:30:34;;;;;;;5.38;1.70;;;;;;;;;;5117011;28;20095;-63
2023/06/13 11:33:00;;;;;;;6.57;1.77;;;;;;;;;;5116558;28;20357;-63
2023/06/13 11:35:28;;;;;;;3.17;1.70;;;;;;;;;;5116880;28;20031;-63
2023/06/13 11:38:00;;;;;;;3.95;1.70;;;;;;;;;;5104920;28;20059;-63
2023/06/13 11:40:32;;;;;;;4.15;1.63;;;;;;;;;;5115590;28;20186;-63
2023/06/13 11:42:58;;;;;;;5.07;1.73;;;;;;;;;;5116908;28;20360;-63
2023/06/13 11:45:23;;;;;;;3.17;1.50;;;;;;;;;;5115617;28;20016;-63
2023/06/13 11:48:11;;;;;;;6.30;1.90;;;;;;;;;;5100067;28;20052;-63
2023/06/13 11:50:37;;;;;;;4.97;1.73;;;;;;;;;;5095971;28;20090;-64
2023/06/13 11:53:07;;;;;;;3.00;1.48;;;;;;;;;;5096102;28;20471;-64
2023/06/13 11:55:32;;;;;;;4.13;1.70;;;;;;;;;;5096223;28;20043;-64
2023/06/13 11:57:58;;;;;;;6.90;1.50;;;;;;;;;;5095926;28;20453;-64
2023/06/13 12:00:26;;;;;;;2.50;1.40;;;;;;;;;;5095830;28;20020;-63
2023/06/13 12:02:55;;;;;;;7.38;1.50;;;;;;;;;;5098203;28;20020;-63
2023/06/13 12:05:22;;;;;;;3.78;1.60;;;;;;;;;;5116403;28;20023;-65
2023/06/13 12:07:49;;;;;;;8.15;1.58;;;;;;;;;;5115945;28;20032;-63
2023/06/13 12:10:15;;;;;;;2.17;1.30;;;;;;;;;;5116182;28;20031;-63
2023/06/13 12:12:41;;;;;;;3.80;1.50;;;;;;;;;;5116075;28;20020;-65
2023/06/13 12:15:07;;;;;;;8.80;1.73;;;;;;;;;;5115095;28;20027;-63
2023/06/13 12:17:33;;;;;;;2.50;1.52;;;;;;;;;;5115855;28;20370;-63
2023/06/13 12:20:09;;;;;;;2.08;1.17;;;;;;;;;;5116002;28;20023;-64
2023/06/13 12:22:34;;;;;;;10.38;1.75;;;;;;;;;;5115744;28;20106;-63
2023/06/13 12:25:00;;;;;;;3.72;1.60;;;;;;;;;;5115610;28;20520;-63
2023/06/13 12:27:26;;;;;;;4.43;1.50;;;;;;;;;;5115683;28;20043;-64
2023/06/13 12:29:52;;;;;;;5.18;1.60;;;;;;;;;;5115593;28;20071;-64
2023/06/13 12:32:18;;;;;;;4.68;1.50;;;;;;;;;;5115487;28;20031;-64
2023/06/13 12:34:45;;;;;;;8.38;1.30;;;;;;;;;;5115743;28;20596;-65
2023/06/13 12:37:12;;;;;;;3.33;1.40;;;;;;;;;;5110198;28;20051;-65
2023/06/13 12:40:09;;;;;;;4.55;1.55;;;;;;;;;;5107458;28;20028;-65
2023/06/13 12:42:35;;;;;;;3.40;1.40;;;;;;;;;;5115657;28;20055;-66
2023/06/13 12:45:02;;;;;;;2.10;1.40;;;;;;;;;;5115642;28;20050;-64
2023/06/13 12:47:28;;;;;;;3.58;1.40;;;;;;;;;;5101851;28;20048;-64
2023/06/13 12:50:06;;;;;;;2.72;1.52;;;;;;;;;;5095213;28;20035;-66
2023/06/13 12:52:32;;;;;;;6.22;1.65;;;;;;;;;;5095185;28;20374;-66
2023/06/13 12:55:01;;;;;;;4.20;1.45;;;;;;;;;;5095071;28;20574;-65
2023/06/13 12:57:27;;;;;;;2.22;1.23;;;;;;;;;;5094997;28;20427;-65
2023/06/13 12:59:53;;;;;;;2.50;1.40;;;;;;;;;;5094766;28;20097;-64
2023/06/13 13:02:23;;;;;;;4.07;1.38;;;;;;;;;;5094717;28;20031;-66
2023/06/13 13:04:58;;;;;;;2.83;1.40;;;;;;;;;;5113702;28;20372;-65
2023/06/13 13:07:25;;;;;;;5.35;1.50;;;;;;;;;;5114992;28;20470;-65
2023/06/13 13:09:51;;;;;;;3.95;1.50;;;;;;;;;;5114993;28;20496;-65
2023/06/13 13:12:16;;;;;;;3.00;1.40;;;;;;;;;;5114984;28;20020;-65
2023/06/13 13:14:42;;;;;;;3.10;1.40;;;;;;;;;;5114972;28;20096;-65
2023/06/13 13:17:08;;;;;;;2.95;1.42;;;;;;;;;;5114932;28;20015;-64
2023/06/13 13:19:34;;;;;;;4.97;1.40;;;;;;;;;;5114623;28;20027;-64
2023/06/13 13:22:01;;;;;;;10.02;1.40;;;;;;;;;;5114803;28;20023;-64
2023/06/13 13:24:26;;;;;;;7.22;1.50;;;;;;;;;;5114639;28;20051;-64
2023/06/13 13:26:53;;;;;;;3.25;1.42;;;;;;;;;;5114444;28;20084;-64
2023/06/13 13:29:19;;;;;;;3.53;1.75;;;;;;;;;;5114460;28;20035;-64
2023/06/13 13:31:45;;;;;;;4.18;1.80;;;;;;;;;;5114576;28;20035;-64
2023/06/13 13:34:11;;;;;;;5.45;1.67;;;;;;;;;;5113500;28;20408;-65
2023/06/13 13:36:38;;;;;;;2.85;1.50;;;;;;;;;;5113790;28;20510;-64
2023/06/13 13:39:04;;;;;;;4.03;1.50;;;;;;;;;;5101202;28;20093;-64
2023/06/13 13:41:32;;;;;;;6.10;1.75;;;;;;;;;;5114176;28;20110;-64
2023/06/13 13:44:03;;;;;;;2.90;1.35;;;;;;;;;;5114009;28;20019;-64
2023/06/13 13:46:29;;;;;;;4.53;1.15;;;;;;;;;;5109257;28;20030;-65
2023/06/13 13:48:55;;;;;;;3.53;1.10;;;;;;;;;;5093476;28;20036;-65
2023/06/13 13:51:25;;;;;;;2.90;1.23;;;;;;;;;;5093783;28;20101;-65
2023/06/13 13:53:51;;;;;;;;;;;;;;;;;;5094365;28;20154;-65
2023/06/13 13:56:17;;;;;;;4.28;1.15;;;;;;;;;;5093752;28;19966;-64
2023/06/13 13:58:42;;;;;;;3.72;1.35;;;;;;;;;;5093427;28;20024;-64
2023/06/13 14:01:07;;;;;;;2.65;1.48;;;;;;;;;;5093583;28;20469;-65
2023/06/13 14:03:34;;;;;;;2.70;1.05;;;;;;;;;;5102001;28;20062;-64
2023/06/13 14:06:00;;;;;;;4.32;1.30;;;;;;;;;;5113929;28;20104;-64
2023/06/13 14:08:26;;;;;;;4.35;1.40;;;;;;;;;;5113988;28;20522;-64
2023/06/13 14:10:51;;;;;;;3.63;1.40;;;;;;;;;;5114037;28;20031;-64
2023/06/13 14:13:17;;;;;;;3.47;1.10;;;;;;;;;;5113100;28;20055;-64
2023/06/13 14:15:42;;;;;;;4.90;1.38;;;;;;;;;;5113810;28;20055;-64
2023/06/13 14:18:09;;;;;;;3.22;1.23;;;;;;;;;;5113853;28;20032;-64
2023/06/13 14:20:35;;;;;;;3.55;1.10;;;;;;;;;;5113699;28;20100;-64
2023/06/13 14:23:01;;;;;;;4.15;1.33;;;;;;;;;;5113721;28;20027;-64
2023/06/13 14:25:27;;;;;;;3.15;1.48;;;;;;;;;;5113773;28;20137;-66
2023/06/13 14:27:52;;;;;;;4.72;1.20;;;;;;;;;;5113185;28;20430;-63
2023/06/13 14:30:18;;;;;;;8.05;1.60;;;;;;;;;;5113417;28;20080;-64
2023/06/13 14:32:43;;;;;;;2.88;1.08;;;;;;;;;;5113524;28;20102;-64
2023/06/13 14:35:08;;;;;;;6.25;1.40;;;;;;;;;;5113418;28;20020;-64
2023/06/13 14:37:34;;;;;;;3.75;1.25;;;;;;;;;;5104210;28;20027;-65
2023/06/13 14:39:59;;;;;;;3.15;1.08;;;;;;;;;;5108410;28;20376;-65
2023/06/13 14:42:25;;;;;;;4.28;1.30;;;;;;;;;;5113192;28;20024;-64